Time;durP1;ratioP1;P1;durP2;ratioP2;P2;SDS_P1;SDS_P2;PMS_P1;PMS_P2;Temp;Humidity;BMP_temperature;BMP_pressure;BME280_temperature;BME280_humidity;BME280_pressure;Samples;Min_cycle;Max_cycle;Signal;HPM_P1;HPM_P2
2023/03/13 00:01:33;;;;;;;;;;;;;;;9.11;100.00;100318.69;5043385;28;19944;-57
2023/03/13 00:03:58;;;;;;;;;;;;;;;9.08;100.00;100310.91;5047196;28;19924;-57
2023/03/13 00:06:24;;;;;;;;;;;;;;;9.05;100.00;100292.88;5039807;28;20290;-57
2023/03/13 00:08:50;;;;;;;;;;;;;;;9.03;100.00;100290.25;5046725;28;20369;-58
2023/03/13 00:11:15;;;;;;;;;;;;;;;9.02;100.00;100300.50;5043113;28;19929;-57
2023/03/13 00:13:41;;;;;;;;;;;;;;;8.99;100.00;100277.34;5044693;28;20161;-57
2023/03/13 00:16:07;;;;;;;;;;;;;;;8.98;100.00;100276.50;5045403;28;20305;-57
2023/03/13 00:18:32;;;;;;;;;;;;;;;8.97;100.00;100272.16;5048225;28;19975;-57
2023/03/13 00:20:59;;;;;;;;;;;;;;;8.96;100.00;100267.88;5051574;28;19968;-57
2023/03/13 00:23:24;;;;;;;;;;;;;;;8.93;100.00;100259.25;5052364;28;19983;-57
2023/03/13 00:25:55;;;;;;;;;;;;;;;8.92;100.00;100260.94;5050321;28;20032;-57
2023/03/13 00:28:20;;;;;;;;;;;;;;;8.89;100.00;100253.16;5050308;28;19917;-58
2023/03/13 00:30:45;;;;;;;;;;;;;;;8.85;100.00;100248.78;5051780;28;19924;-58
2023/03/13 00:33:11;;;;;;;;;;;;;;;8.82;100.00;100248.72;5050083;28;19921;-58
2023/03/13 00:35:36;;;;;;;;;;;;;;;8.78;100.00;100236.63;5049660;28;20013;-57
2023/03/13 00:38:01;;;;;;;;;;;;;;;8.77;100.00;100240.03;5048625;28;19921;-57
2023/03/13 00:40:26;;;;;;;;;;;;;;;8.74;100.00;100225.47;5050682;28;19920;-58
2023/03/13 00:42:51;;;;;;;;;;;;;;;8.72;100.00;100219.41;5053516;28;20389;-57
2023/03/13 00:45:17;;;;;;;;;;;;;;;8.72;100.00;100210.84;5051285;28;20288;-57
2023/03/13 00:47:42;;;;;;;;;;;;;;;8.70;100.00;100207.41;5049241;28;20364;-57
2023/03/13 00:50:07;;;;;;;;;;;;;;;8.69;100.00;100208.22;5051287;28;19921;-57
2023/03/13 00:52:33;;;;;;;;;;;;;;;8.67;100.00;100197.91;5044163;28;20024;-58
2023/03/13 00:54:58;;;;;;;;;;;;;;;8.67;100.00;100187.66;5049120;28;19960;-57
2023/03/13 00:57:23;;;;;;;;;;;;;;;8.66;100.00;100185.06;5048764;28;20293;-58
2023/03/13 00:59:48;;;;;;;;;;;;;;;8.67;100.00;100176.56;5051229;28;19929;-57
2023/03/13 01:02:13;;;;;;;;;;;;;;;8.66;100.00;100172.25;5043525;28;19925;-57
2023/03/13 01:04:39;;;;;;;;;;;;;;;8.65;100.00;100167.97;5052894;28;19920;-58
2023/03/13 01:07:04;;;;;;;;;;;;;;;8.65;100.00;100171.41;5047565;28;19921;-57
2023/03/13 01:09:29;;;;;;;;;;;;;;;8.66;100.00;100164.56;5050209;28;19921;-58
2023/03/13 01:11:54;;;;;;;;;;;;;;;8.66;100.00;100151.75;5049326;28;19924;-58
2023/03/13 01:14:20;;;;;;;;;;;;;;;8.67;100.00;100140.66;5048583;28;20297;-58
2023/03/13 01:16:45;;;;;;;;;;;;;;;8.68;100.00;100142.44;5052215;28;20311;-58
2023/03/13 01:19:12;;;;;;;;;;;;;;;8.69;100.00;100133.91;5050521;28;19917;-58
2023/03/13 01:21:37;;;;;;;;;;;;;;;8.71;100.00;100127.09;5050684;28;19917;-58
2023/03/13 01:24:03;;;;;;;;;;;;;;;8.72;100.00;100114.31;5051232;28;19924;-58
2023/03/13 01:26:28;;;;;;;;;;;;;;;8.75;100.00;100108.41;5048823;28;19947;-57
2023/03/13 01:28:54;;;;;;;;;;;;;;;8.78;100.00;100108.47;5047319;28;19964;-58
2023/03/13 01:31:23;;;;;;;;;;;;;;;8.80;100.00;100094.88;5049879;28;19924;-58
2023/03/13 01:33:50;;;;;;;;;;;;;;;8.84;100.00;100093.22;5049420;28;19931;-58
2023/03/13 01:36:15;;;;;;;;;;;;;;;8.87;100.00;100101.00;5049911;28;19979;-58
2023/03/13 01:38:41;;;;;;;;;;;;;;;8.91;100.00;100092.53;5048271;28;20008;-58
2023/03/13 01:41:07;;;;;;;;;;;;;;;8.94;100.00;100084.94;5048478;28;19920;-59
2023/03/13 01:43:34;;;;;;;;;;;;;;;8.98;100.00;100073.91;5049291;28;20328;-58
2023/03/13 01:46:17;;;;;;;;;;;;;;;9.04;100.00;100070.59;5050948;28;19921;-58
2023/03/13 01:49:01;;;;;;;;;;;;;;;9.07;100.00;100061.28;5049205;28;20441;-58
2023/03/13 01:51:33;;;;;;;;;;;;;;;9.13;100.00;100056.28;5047113;28;19917;-58
2023/03/13 01:54:02;;;;;;;;;;;;;;;9.17;100.00;100054.66;5050274;28;19928;-58
2023/03/13 01:56:32;;;;;;;;;;;;;;;9.21;100.00;100046.16;5048628;28;19916;-58
2023/03/13 01:58:58;;;;;;;;;;;;;;;9.26;100.00;100041.13;5050276;28;19951;-58
2023/03/13 02:01:23;;;;;;;;;;;;;;;9.28;100.00;100027.53;5047930;28;19921;-58
2023/03/13 02:03:49;;;;;;;;;;;;;;;9.33;100.00;100031.00;5049742;28;19925;-58
2023/03/13 02:06:15;;;;;;;;;;;;;;;9.38;100.00;100019.16;5049210;28;19916;-57
2023/03/13 02:08:43;;;;;;;;;;;;;;;9.44;100.00;100015.84;5052064;28;20374;-57
2023/03/13 02:11:24;;;;;;;;;;;;;;;9.50;100.00;100004.81;5047963;28;20381;-58
2023/03/13 02:13:50;;;;;;;;;;;;;;;9.55;100.00;100004.06;5058115;28;20335;-58
2023/03/13 02:16:16;;;;;;;;;;;;;;;9.59;100.00;100000.75;5049950;28;19955;-58
2023/03/13 02:18:41;;;;;;;;;;;;;;;9.63;100.00;99981.97;5048973;28;19948;-58
2023/03/13 02:21:10;;;;;;;;;;;;;;;9.69;100.00;99976.06;5049723;28;19920;-58
2023/03/13 02:23:46;;;;;;;;;;;;;;;9.72;100.00;99954.75;5045452;28;20007;-58
2023/03/13 02:26:12;;;;;;;;;;;;;;;9.77;100.00;99955.66;5050873;28;19917;-60
2023/03/13 02:28:38;;;;;;;;;;;;;;;9.79;100.00;99941.16;5048784;28;21195;-58
2023/03/13 02:31:04;;;;;;;;;;;;;;;9.82;100.00;99941.19;5049842;28;19971;-58
2023/03/13 02:33:30;;;;;;;;;;;;;;;9.83;100.00;99948.09;5049029;28;19920;-60
2023/03/13 02:35:56;;;;;;;;;;;;;;;9.85;100.00;99942.13;5027546;28;19920;-58
2023/03/13 02:38:26;;;;;;;;;;;;;;;9.87;100.00;99944.72;5049037;28;20400;-58
2023/03/13 02:40:52;;;;;;;;;;;;;;;9.90;100.00;99939.66;5030423;28;19966;-58
2023/03/13 02:43:21;;;;;;;;;;;;;;;9.92;100.00;99949.09;5048444;28;20003;-58
2023/03/13 02:46:19;;;;;;;;;;;;;;;9.93;100.00;99944.81;5048152;28;19970;-58
2023/03/13 02:48:46;;;;;;;;;;;;;;;9.96;100.00;99944.00;5009491;28;20518;-58
2023/03/13 02:51:15;;;;;;;;;;;;;;;9.98;100.00;99943.19;5048359;28;19913;-58
2023/03/13 02:53:40;;;;;;;;;;;;;;;9.99;100.00;99928.63;5048592;28;19963;-58
2023/03/13 02:56:06;;;;;;;;;;;;;;;10.02;100.00;99933.84;5047908;28;20438;-58
2023/03/13 02:58:37;;;;;;;;;;;;;;;10.04;100.00;99938.16;5047736;28;20808;-58
2023/03/13 03:01:06;;;;;;;;;;;;;;;10.06;100.00;99949.28;5049599;28;19917;-58
2023/03/13 03:03:31;;;;;;;;;;;;;;;10.08;100.00;99934.78;5047513;28;19980;-58
2023/03/13 03:05:57;;;;;;;;;;;;;;;10.12;100.00;99941.69;5045940;28;19947;-58
2023/03/13 03:08:22;;;;;;;;;;;;;;;10.13;100.00;99938.28;5047266;28;20490;-58
2023/03/13 03:10:47;;;;;;;;;;;;;;;10.15;100.00;99931.47;5047043;28;20369;-58
2023/03/13 03:13:12;;;;;;;;;;;;;;;10.20;100.00;99926.41;5048976;28;20317;-58
2023/03/13 03:15:38;;;;;;;;;;;;;;;10.22;100.00;99927.28;5046641;28;20310;-58
2023/03/13 03:18:03;;;;;;;;;;;;;;;10.23;100.00;99929.03;5048082;28;19921;-58
2023/03/13 03:20:28;;;;;;;;;;;;;;;10.26;100.00;99941.09;5049425;28;20378;-58
2023/03/13 03:22:53;;;;;;;;;;;;;;;10.28;100.00;99921.41;5047517;28;19966;-58
2023/03/13 03:25:19;;;;;;;;;;;;;;;10.30;100.00;99930.84;5048056;28;19931;-58
2023/03/13 03:27:44;;;;;;;;;;;;;;;10.32;100.00;99918.03;5050667;28;19921;-58
2023/03/13 03:30:09;;;;;;;;;;;;;;;10.36;100.00;99917.22;5045550;28;19925;-58
2023/03/13 03:32:35;;;;;;;;;;;;;;;10.39;100.00;99919.84;5052547;28;20361;-58
2023/03/13 03:35:00;;;;;;;;;;;;;;;10.43;100.00;99916.44;5048798;28;20376;-58
2023/03/13 03:37:25;;;;;;;;;;;;;;;10.45;100.00;99920.78;5047593;28;19948;-58
2023/03/13 03:39:50;;;;;;;;;;;;;;;10.48;100.00;99922.53;5046033;28;19917;-58
2023/03/13 03:42:16;;;;;;;;;;;;;;;10.51;100.00;99924.28;5037422;28;20382;-58
2023/03/13 03:44:41;;;;;;;;;;;;;;;10.54;100.00;99922.59;5047968;28;20019;-57
2023/03/13 03:47:06;;;;;;;;;;;;;;;10.54;100.00;99927.75;5049784;28;20286;-57
2023/03/13 03:49:32;;;;;;;;;;;;;;;10.54;100.00;99917.47;5047684;28;19925;-57
2023/03/13 03:51:57;;;;;;;;;;;;;;;10.57;100.00;99927.81;5045089;28;19932;-57
2023/03/13 03:54:22;;;;;;;;;;;;;;;10.56;100.00;99936.38;5045386;28;19932;-57
2023/03/13 03:56:47;;;;;;;;;;;;;;;10.58;100.00;99914.09;5045813;28;19931;-57
2023/03/13 03:59:13;;;;;;;;;;;;;;;10.59;100.00;99917.53;5045740;28;19925;-57
2023/03/13 04:01:38;;;;;;;;;;;;;;;10.60;100.00;99916.69;5046358;28;19928;-57
2023/03/13 04:04:03;;;;;;;;;;;;;;;10.63;100.00;99916.75;5041135;28;19925;-57
2023/03/13 04:06:29;;;;;;;;;;;;;;;10.63;100.00;99911.59;5043471;28;20022;-57
2023/03/13 04:08:54;;;;;;;;;;;;;;;10.64;100.00;99909.03;5044590;28;19920;-58
2023/03/13 04:11:20;;;;;;;;;;;;;;;10.65;100.00;99913.31;5050113;28;19928;-57
2023/03/13 04:13:45;;;;;;;;;;;;;;;10.69;100.00;99919.38;5046550;28;19925;-58
2023/03/13 04:16:11;;;;;;;;;;;;;;;10.70;100.00;99915.97;5047756;28;19962;-58
2023/03/13 04:18:36;;;;;;;;;;;;;;;10.73;100.00;99896.28;5051450;28;19927;-59
2023/03/13 04:21:02;;;;;;;;;;;;;;;10.77;100.00;99892.03;5049734;28;19964;-58
2023/03/13 04:23:27;;;;;;;;;;;;;;;10.83;100.00;99891.25;5048602;28;19968;-59
2023/03/13 04:25:53;;;;;;;;;;;;;;;10.84;100.00;99875.84;5047934;28;20018;-59
2023/03/13 04:28:18;;;;;;;;;;;;;;;10.86;100.00;99870.69;5046875;28;19928;-59
2023/03/13 04:30:43;;;;;;;;;;;;;;;10.88;100.00;99856.16;5050459;28;20358;-59
2023/03/13 04:33:08;;;;;;;;;;;;;;;10.92;100.00;99865.63;5049003;28;20301;-59
2023/03/13 04:35:34;;;;;;;;;;;;;;;10.98;100.00;99860.53;5046006;28;20310;-59
2023/03/13 04:38:00;;;;;;;;;;;;;;;11.01;100.00;99845.16;5047868;28;19925;-59
2023/03/13 04:40:25;;;;;;;;;;;;;;;11.04;100.00;99834.88;5029462;28;19924;-59
2023/03/13 04:42:50;;;;;;;;;;;;;;;11.08;100.00;99840.94;5046523;28;19929;-59
2023/03/13 04:45:15;;;;;;;;;;;;;;;11.11;100.00;99838.41;5047066;28;20435;-59
2023/03/13 04:47:41;;;;;;;;;;;;;;;11.15;100.00;99838.41;5046376;28;19935;-59
2023/03/13 04:50:06;;;;;;;;;;;;;;;11.19;100.00;99835.03;5047435;28;19920;-58
2023/03/13 04:52:31;;;;;;;;;;;;;;;11.23;100.00;99838.53;5047471;28;20001;-59
2023/03/13 04:54:56;;;;;;;;;;;;;;;11.24;100.00;99833.38;5032948;28;20003;-59
2023/03/13 04:57:21;;;;;;;;;;;;;;;11.24;100.00;99840.25;5045258;28;19982;-59
2023/03/13 04:59:47;;;;;;;;;;;;;;;11.23;100.00;99836.81;5046330;28;19932;-59
2023/03/13 05:02:12;;;;;;;;;;;;;;;11.26;100.00;99833.38;5045258;28;20655;-59
2023/03/13 05:04:38;;;;;;;;;;;;;;;11.28;100.00;99835.13;5047121;28;20340;-59
2023/03/13 05:07:03;;;;;;;;;;;;;;;11.27;100.00;99823.09;5050976;28;20490;-59
2023/03/13 05:09:28;;;;;;;;;;;;;;;11.30;100.00;99816.28;5046160;28;19936;-59
2023/03/13 05:11:53;;;;;;;;;;;;;;;11.34;100.00;99812.84;5050131;28;19927;-59
2023/03/13 05:14:19;;;;;;;;;;;;;;;11.37;100.00;99815.47;5044265;28;19991;-59
2023/03/13 05:16:44;;;;;;;;;;;;;;;11.40;100.00;99808.59;5051824;28;19920;-59
2023/03/13 05:19:09;;;;;;;;;;;;;;;11.43;100.00;99824.09;5046110;28;19975;-59
2023/03/13 05:21:34;;;;;;;;;;;;;;;11.46;100.00;99813.81;5052819;28;19929;-58
2023/03/13 05:24:00;;;;;;;;;;;;;;;11.49;100.00;99810.41;5053006;28;20379;-59
2023/03/13 05:26:25;;;;;;;;;;;;;;;11.51;100.00;99806.13;5048206;28;19986;-58
2023/03/13 05:28:50;;;;;;;;;;;;;;;11.53;100.00;99804.44;5048008;28;19927;-59
2023/03/13 05:31:15;;;;;;;;;;;;;;;11.55;100.00;99808.75;5049877;28;19974;-60
2023/03/13 05:33:41;;;;;;;;;;;;;;;11.57;100.00;99800.16;5050009;28;19921;-59
2023/03/13 05:36:06;;;;;;;;;;;;;;;11.60;100.00;99793.34;5048971;28;19920;-59
2023/03/13 05:38:31;;;;;;;;;;;;;;;11.61;100.00;99813.06;5047850;28;19974;-59
2023/03/13 05:40:56;;;;;;;;;;;;;;;11.59;100.00;99804.50;5047628;28;19936;-59
2023/03/13 05:43:22;;;;;;;;;;;;;;;11.61;100.00;99801.91;5051504;28;19932;-59
2023/03/13 05:45:47;;;;;;;;;;;;;;;11.67;100.00;99802.81;5050337;28;19921;-59
2023/03/13 05:48:12;;;;;;;;;;;;;;;11.70;100.00;99796.81;5046726;28;19936;-59
2023/03/13 05:50:37;;;;;;;;;;;;;;;11.70;100.00;99807.13;5044558;28;19921;-59
2023/03/13 05:53:03;;;;;;;;;;;;;;;11.70;100.00;99802.81;5046398;28;19928;-59
2023/03/13 05:55:28;;;;;;;;;;;;;;;11.74;100.00;99803.72;5049134;28;19975;-59
2023/03/13 05:57:53;;;;;;;;;;;;;;;11.75;100.00;99806.28;5049287;28;20400;-59
2023/03/13 06:00:18;;;;;;;;;;;;;;;11.78;100.00;99803.75;5045158;28;19925;-59
2023/03/13 06:02:44;;;;;;;;;;;;;;;11.81;100.00;99805.50;5048366;28;19921;-61
2023/03/13 06:05:09;;;;;;;;;;;;;;;11.83;100.00;99808.97;5048932;28;19921;-59
2023/03/13 06:07:35;;;;;;;;;;;;;;;11.83;100.00;99803.81;5052644;28;20353;-60
2023/03/13 06:10:00;;;;;;;;;;;;;;;11.81;100.00;99801.22;5033789;28;19912;-59
2023/03/13 06:12:25;;;;;;;;;;;;;;;11.82;100.00;99807.22;5048373;28;19932;-59
2023/03/13 06:14:51;;;;;;;;;;;;;;;11.85;100.00;99812.41;5052996;28;20199;-59
2023/03/13 06:17:16;;;;;;;;;;;;;;;11.85;100.00;99791.81;5055230;28;19927;-59
2023/03/13 06:19:41;;;;;;;;;;;;;;;11.90;100.00;99797.00;5050072;28;19966;-59
2023/03/13 06:22:07;;;;;;;;;;;;;;;11.95;100.00;99779.81;5052101;28;19924;-60
2023/03/13 06:24:32;;;;;;;;;;;;;;;11.95;100.00;99780.72;5052426;28;19960;-59
2023/03/13 06:26:57;;;;;;;;;;;;;;;11.97;100.00;99783.28;5050235;28;20393;-59
2023/03/13 06:29:23;;;;;;;;;;;;;;;11.96;100.00;99794.44;5050587;28;19925;-59
2023/03/13 06:31:48;;;;;;;;;;;;;;;11.97;100.00;99794.44;5051641;28;19962;-59
2023/03/13 06:34:14;;;;;;;;;;;;;;;11.99;100.00;99789.28;5047808;28;19967;-59
2023/03/13 06:36:39;;;;;;;;;;;;;;;12.01;100.00;99790.16;5048319;28;20392;-59
2023/03/13 06:39:04;;;;;;;;;;;;;;;12.03;100.00;99788.47;5049154;28;19920;-59
2023/03/13 06:41:30;;;;;;;;;;;;;;;12.04;100.00;99791.03;5048922;28;19921;-59
2023/03/13 06:43:55;;;;;;;;;;;;;;;12.04;100.00;99788.47;5046533;28;19921;-59
2023/03/13 06:46:21;;;;;;;;;;;;;;;12.06;100.00;99796.19;5043600;28;20345;-59
2023/03/13 06:48:47;;;;;;;;;;;;;;;12.07;100.00;99787.59;5048810;28;19923;-59
2023/03/13 06:51:13;;;;;;;;;;;;;;;12.08;100.00;99789.34;5048680;28;19916;-59
2023/03/13 06:53:38;;;;;;;;;;;;;;;12.09;100.00;99791.06;5046888;28;20332;-59
2023/03/13 06:56:04;;;;;;;;;;;;;;;12.11;100.00;99794.50;5048866;28;19920;-59
2023/03/13 06:58:29;;;;;;;;;;;;;;;12.14;100.00;99786.81;5047139;28;20302;-59
2023/03/13 07:00:54;;;;;;;;;;;;;;;12.17;100.00;99783.38;5047943;28;20015;-59
2023/03/13 07:03:19;;;;;;;;;;;;;;;12.18;100.00;99787.66;5048538;28;20401;-59
2023/03/13 07:05:45;;;;;;;;;;;;;;;12.22;100.00;99787.69;5047195;28;19955;-59
2023/03/13 07:08:10;;;;;;;;;;;;;;;12.22;100.00;99791.97;5048402;28;20852;-59
2023/03/13 07:10:35;;;;;;;;;;;;;;;12.23;100.00;99788.53;5045873;28;19931;-59
2023/03/13 07:13:00;;;;;;;;;;;;;;;12.26;100.00;99794.59;5047661;28;20074;-59
2023/03/13 07:15:26;;;;;;;;;;;;;;;12.27;100.00;99786.00;5045235;28;20424;-59
2023/03/13 07:17:51;;;;;;;;;;;;;;;12.29;100.00;99781.69;5043997;28;19925;-59
2023/03/13 07:20:16;;;;;;;;;;;;;;;12.30;100.00;99774.81;5028411;28;19920;-59
2023/03/13 07:22:41;;;;;;;;;;;;;;;12.33;100.00;99788.59;5045691;28;20305;-59
2023/03/13 07:25:08;;;;;;;;;;;;;;;12.35;100.00;99780.84;5050080;28;20335;-59
2023/03/13 07:27:33;;;;;;;;;;;;;;;12.35;100.00;99780.84;5045586;28;19983;-59
2023/03/13 07:29:58;;;;;;;;;;;;;;;12.38;100.00;99785.16;5048917;28;19921;-59
2023/03/13 07:32:24;;;;;;;;;;;;;;;12.39;100.00;99789.47;5042689;28;19986;-59
2023/03/13 07:34:49;;;;;;;;;;;;;;;12.41;100.00;99780.03;5047924;28;19933;-59
2023/03/13 07:37:15;;;;;;;;;;;;;;;12.44;100.00;99785.22;5041144;28;19921;-59
2023/03/13 07:39:41;;;;;;;;;;;;;;;12.45;100.00;99779.19;5046679;28;19920;-59
2023/03/13 07:42:06;;;;;;;;;;;;;;;12.48;100.00;99776.59;5031574;28;19925;-59
2023/03/13 07:44:31;;;;;;;;;;;;;;;12.51;100.00;99790.38;5046618;28;19959;-59
2023/03/13 07:47:00;;;;;;;;;;;;;;;12.52;100.00;99781.78;5031607;28;19924;-60
2023/03/13 07:49:25;;;;;;;;;;;;;;;12.52;100.00;99786.94;5046453;28;20011;-60
2023/03/13 07:51:50;;;;;;;;;;;;;;;12.54;100.00;99792.09;5047223;28;20404;-59
2023/03/13 07:54:16;;;;;;;;;;;;;;;12.54;100.00;99800.69;5050366;28;19925;-59
2023/03/13 07:56:41;;;;;;;;;;;;;;;12.53;100.00;99785.22;5044644;28;19916;-58
2023/03/13 07:59:06;;;;;;;;;;;;;;;12.52;100.00;99796.41;5046896;28;20325;-59
2023/03/13 08:01:32;;;;;;;;;;;;;;;12.53;100.00;99785.22;5044238;28;19932;-58
2023/03/13 08:04:00;;;;;;;;;;;;;;;12.52;100.00;99786.09;5046150;28;19921;-60
2023/03/13 08:06:26;;;;;;;;;;;;;;;12.56;100.00;99780.09;5047017;28;19917;-60
2023/03/13 08:08:52;;;;;;;;;;;;;;;12.63;100.00;99778.38;5045902;28;19997;-57
2023/03/13 08:11:19;;;;;;;;;;;;;;;12.66;100.00;99779.22;5047359;28;19968;-60
2023/03/13 08:13:44;;;;;;;;;;;;;;;12.72;100.00;99774.09;5045248;28;19917;-60
2023/03/13 08:16:14;;;;;;;;;;;;;;;12.77;100.00;99772.38;5048338;28;19944;-60
2023/03/13 08:18:41;;;;;;;;;;;;;;;12.83;100.00;99766.38;5051172;28;19923;-60
2023/03/13 08:21:07;;;;;;;;;;;;;;;12.84;100.00;99771.53;5049707;28;20370;-59
2023/03/13 08:23:33;;;;;;;;;;;;;;;12.87;100.00;99757.78;5047398;28;19943;-60
2023/03/13 08:26:06;;;;;;;;;;;;;;;12.87;100.00;99758.66;5047972;28;19925;-61
2023/03/13 08:28:32;;;;;;;;;;;;;;;12.87;100.00;99766.38;5046008;28;19940;-60
2023/03/13 08:30:57;;;;;;;;;;;;;;;12.94;100.00;99763.81;5046253;28;20385;-61
2023/03/13 08:33:23;;;;;;;;;;;;;;;12.96;99.60;99767.25;5046756;28;19920;-60
2023/03/13 08:35:48;;;;;;;;;;;;;;;13.00;99.33;99763.81;5048011;28;20230;-60
2023/03/13 08:38:13;;;;;;;;;;;;;;;13.03;100.00;99782.72;5046991;28;19929;-60
2023/03/13 08:40:39;;;;;;;;;;;;;;;13.03;100.00;99766.38;5047402;28;20301;-60
2023/03/13 08:43:04;;;;;;;;;;;;;;;12.99;100.00;99767.25;5049682;28;19931;-59
2023/03/13 08:45:29;;;;;;;;;;;;;;;12.93;100.00;99767.25;5049583;28;19924;-60
2023/03/13 08:47:54;;;;;;;;;;;;;;;12.87;100.00;99784.44;5050905;28;19921;-60
2023/03/13 08:50:19;;;;;;;;;;;;;;;12.79;100.00;99785.28;5051113;28;20016;-59
2023/03/13 08:52:45;;;;;;;;;;;;;;;12.70;100.00;99775.81;5048348;28;19925;-60
2023/03/13 08:55:10;;;;;;;;;;;;;;;12.63;100.00;99762.91;5050648;28;19983;-59
2023/03/13 08:57:35;;;;;;;;;;;;;;;12.61;100.00;99753.41;5033150;28;20453;-59
2023/03/13 09:00:01;;;;;;;;;;;;;;;12.64;100.00;99762.91;5050653;28;20267;-59
2023/03/13 09:02:26;;;;;;;;;;;;;;;12.98;100.00;99744.88;5050163;28;19948;-59
2023/03/13 09:04:51;;;;;;;;;;;;;;;13.59;100.00;99738.00;5049879;28;19920;-59
2023/03/13 09:07:17;;;;;;;;;;;;;;;14.23;100.00;99726.56;5051601;28;19917;-59
2023/03/13 09:09:42;;;;;;;;;;;;;;;14.32;98.35;99720.47;5033528;28;20042;-59
2023/03/13 09:12:07;;;;;;;;;;;;;;;14.18;96.71;99733.47;5049790;28;20297;-59
2023/03/13 09:14:33;;;;;;;;;;;;;;;14.36;96.13;99712.69;5047605;28;19952;-59
2023/03/13 09:16:58;;;;;;;;;;;;;;;14.65;92.03;99727.22;5050623;28;20039;-59
2023/03/13 09:19:24;;;;;;;;;;;;;;;15.57;86.76;99704.81;5028342;28;20455;-60
2023/03/13 09:21:49;;;;;;;;;;;;;;;16.39;83.20;99717.69;5048242;28;20013;-59
2023/03/13 09:24:14;;;;;;;;;;;;;;;16.92;81.20;99720.38;5050637;28;20309;-59
2023/03/13 09:26:40;;;;;;;;;;;;;;;17.34;76.78;99711.84;5049832;28;19924;-60
2023/03/13 09:29:05;;;;;;;;;;;;;;;17.38;75.83;99710.06;5032539;28;19925;-59
2023/03/13 09:31:31;;;;;;;;;;;;;;;17.84;77.00;99696.25;5047747;28;19925;-60
2023/03/13 09:33:56;;;;;;;;;;;;;;;18.55;70.99;99688.59;5050282;28;19940;-59
2023/03/13 09:36:22;;;;;;;;;;;;;;;19.24;71.04;99684.34;5050944;28;19924;-60
2023/03/13 09:38:48;;;;;;;;;;;;;;;19.69;68.25;99681.41;5049088;28;19928;-60
2023/03/13 09:41:16;;;;;;;;;;;;;;;20.45;65.38;99668.75;5051249;28;20301;-61
2023/03/13 09:43:58;;;;;;;;;;;;;;;21.28;64.17;99669.47;5048487;28;19920;-62
2023/03/13 09:46:31;;;;;;;;;;;;;;;21.35;59.04;99668.38;5048783;28;19927;-61
2023/03/13 09:48:58;;;;;;;;;;;;;;;21.39;59.97;99663.88;5049368;28;20329;-60
2023/03/13 09:51:26;;;;;;;;;;;;;;;21.34;56.78;99673.66;5050537;28;19916;-61
2023/03/13 09:53:52;;;;;;;;;;;;;;;20.78;57.94;99671.16;5047397;28;19921;-61
2023/03/13 09:56:21;;;;;;;;;;;;;;;19.71;58.72;99664.81;5050408;28;20332;-61
2023/03/13 09:58:50;;;;;;;;;;;;;;;18.85;63.50;99652.34;5047058;28;20239;-61
2023/03/13 10:01:21;;;;;;;;;;;;;;;18.12;64.80;99653.13;5047701;28;20320;-61
2023/03/13 10:03:57;;;;;;;;;;;;;;;17.79;67.37;99664.28;5047205;28;19913;-61
2023/03/13 10:06:24;;;;;;;;;;;;;;;18.46;66.71;99657.59;5029216;28;19921;-60
2023/03/13 10:08:49;;;;;;;;;;;;;;;18.50;64.32;99651.41;5050021;28;20362;-60
2023/03/13 10:11:15;;;;;;;;;;;;;;;18.52;65.05;99657.44;5041772;28;19978;-61
2023/03/13 10:13:45;;;;;;;;;;;;;;;20.52;58.02;99665.03;5050672;28;19924;-60
2023/03/13 10:16:32;;;;;;;;;;;;;;;22.39;52.32;99640.97;5046353;28;20127;-60
2023/03/13 10:18:58;;;;;;;;;;;;;;;23.85;50.35;99635.63;5050568;28;20022;-60
2023/03/13 10:21:33;;;;;;;;;;;;;;;22.91;48.29;99638.00;5052293;28;19916;-60
2023/03/13 10:24:04;;;;;;;;;;;;;;;21.31;52.35;99643.25;5046859;28;20381;-61
2023/03/13 10:26:32;;;;;;;;;;;;;;;20.79;54.25;99634.53;5047923;28;20346;-61
2023/03/13 10:29:00;;;;;;;;;;;;;;;20.23;53.48;99631.13;5049437;28;19916;-61
2023/03/13 10:31:30;;;;;;;;;;;;;;;19.36;56.50;99646.69;5049668;28;19920;-61
2023/03/13 10:34:04;;;;;;;;;;;;;;;18.86;58.57;99630.59;5046845;28;19924;-61
2023/03/13 10:36:38;;;;;;;;;;;;;;;18.59;60.57;99634.72;5049555;28;20015;-61
2023/03/13 10:39:06;;;;;;;;;;;;;;;18.27;61.28;99632.88;5048478;28;20369;-62
2023/03/13 10:41:35;;;;;;;;;;;;;;;17.90;63.73;99620.72;5045944;28;20667;-61
2023/03/13 10:44:14;;;;;;;;;;;;;;;18.01;64.43;99617.84;5047846;28;20362;-61
2023/03/13 10:46:41;;;;;;;;;;;;;;;18.27;62.81;99609.47;5048221;28;19917;-61
2023/03/13 10:49:13;;;;;;;;;;;;;;;19.17;63.52;99615.91;5050434;28;19916;-61
2023/03/13 10:51:39;;;;;;;;;;;;;;;19.74;57.80;99602.16;5050153;28;19913;-61
2023/03/13 10:54:24;;;;;;;;;;;;;;;19.45;59.27;99605.56;5031847;28;19921;-61
2023/03/13 10:56:50;;;;;;;;;;;;;;;18.75;59.63;99605.72;5049398;28;19916;-61
2023/03/13 10:59:23;;;;;;;;;;;;;;;18.46;62.65;99610.75;5049533;28;19917;-61
2023/03/13 11:01:49;;;;;;;;;;;;;;;19.59;60.71;99601.72;5050027;28;19972;-61
2023/03/13 11:04:20;;;;;;;;;;;;;;;19.73;59.10;99615.25;5049154;28;19944;-61
2023/03/13 11:06:56;;;;;;;;;;;;;;;19.11;59.95;99600.44;5049138;28;19928;-61
2023/03/13 11:09:23;;;;;;;;;;;;;;;18.44;62.61;99607.31;5049382;28;20008;-61
2023/03/13 11:11:59;;;;;;;;;;;;;;;17.98;64.21;99617.94;5050517;28;20298;-61
2023/03/13 11:14:25;;;;;;;;;;;;;;;17.54;66.09;99602.34;5047537;28;19917;-61
2023/03/13 11:16:53;;;;;;;;;;;;;;;17.32;66.98;99609.72;5047546;28;19931;-61
2023/03/13 11:19:18;;;;;;;;;;;;;;;17.19;66.97;99590.06;5048611;28;19927;-61
2023/03/13 11:21:52;;;;;;;;;;;;;;;17.15;65.82;99590.97;5049674;28;20003;-61
2023/03/13 11:24:27;;;;;;;;;;;;;;;17.13;66.28;99579.78;5048938;28;19920;-61
2023/03/13 11:27:15;;;;;;;;;;;;;;;17.11;67.06;99571.16;5047112;28;19917;-62
2023/03/13 11:29:53;;;;;;;;;;;;;;;16.91;66.27;99578.47;5039352;28;20581;-62
2023/03/13 11:32:25;;;;;;;;;;;;;;;16.70;67.29;99575.38;5048581;28;19920;-61
2023/03/13 11:34:53;;;;;;;;;;;;;;;16.64;68.01;99572.84;5049366;28;19959;-61
2023/03/13 11:37:20;;;;;;;;;;;;;;;16.71;67.94;99577.06;5047866;28;20012;-62
2023/03/13 11:40:14;;;;;;;;;;;;;;;16.81;63.74;99572.59;5049065;28;19935;-62
2023/03/13 11:42:58;;;;;;;;;;;;;;;17.03;63.39;99584.28;5047140;28;20397;-62
2023/03/13 11:45:32;;;;;;;;;;;;;;;17.20;63.22;99570.13;5048817;28;19920;-62
2023/03/13 11:48:18;;;;;;;;;;;;;;;17.41;64.96;99559.28;5043503;28;19947;-62
2023/03/13 11:51:12;;;;;;;;;;;;;;;17.67;62.15;99551.81;5048635;28;19936;-62
2023/03/13 11:53:40;;;;;;;;;;;;;;;17.71;62.18;99547.38;5048861;28;19920;-64
2023/03/13 11:56:20;;;;;;;;;;;;;;;17.56;60.56;99537.34;5048868;28;19920;-61
2023/03/13 11:58:48;;;;;;;;;;;;;;;17.45;62.47;99540.16;5048301;28;19917;-61
2023/03/13 12:01:16;;;;;;;;;;;;;;;17.40;63.79;99527.25;5047078;28;19921;-61
2023/03/13 12:03:45;;;;;;;;;;;;;;;17.53;63.99;99522.66;5047807;28;19920;-61
2023/03/13 12:06:18;;;;;;;;;;;;;;;17.69;60.71;99520.56;5047015;28;20394;-61
2023/03/13 12:08:49;;;;;;;;;;;;;;;17.79;60.73;99513.47;5048031;28;19963;-61
2023/03/13 12:11:20;;;;;;;;;;;;;;;17.80;56.72;99513.44;5048077;28;19920;-61
2023/03/13 12:13:53;;;;;;;;;;;;;;;17.78;58.11;99514.38;5048342;28;20408;-62
2023/03/13 12:16:20;;;;;;;;;;;;;;;17.83;60.02;99515.09;5049020;28;20044;-61
2023/03/13 12:18:47;;;;;;;;;;;;;;;17.91;57.04;99500.19;5053138;28;19970;-62
2023/03/13 12:21:18;;;;;;;;;;;;;;;17.94;58.02;99490.53;5052508;28;19913;-61
2023/03/13 12:23:51;;;;;;;;;;;;;;;17.98;57.90;99480.94;5048941;28;20011;-61
2023/03/13 12:26:19;;;;;;;;;;;;;;;18.08;58.81;99481.53;5051465;28;19923;-61
2023/03/13 12:28:45;;;;;;;;;;;;;;;18.31;57.13;99480.97;5053702;28;19935;-62
2023/03/13 12:31:29;;;;;;;;;;;;;;;18.51;56.86;99478.75;5052561;28;20458;-62
2023/03/13 12:34:13;;;;;;;;;;;;;;;18.64;56.83;99469.69;5052092;28;19923;-61
2023/03/13 12:36:41;;;;;;;;;;;;;;;18.60;55.83;99478.47;5050216;28;19917;-62
2023/03/13 12:39:06;;;;;;;;;;;;;;;18.61;55.47;99461.97;5052808;28;19913;-62
2023/03/13 12:41:40;;;;;;;;;;;;;;;18.55;55.74;99462.13;5051808;28;20736;-61